EJU001 LIML-LIMF
Flight info
| Callsign | EJU001 |
|---|---|
| Flight time | 0h 35m |
| Altitude | 24000 |
| Route | GEN |
| Aircraft | A320/M-SDE3FGHIRWY/LB1 |
Departure
| Time | 2026-05-04 20:25 |
|---|---|
| Airport | Milano Linate Airport (LIML) |
Arrival
| Time | 2026-05-04 21:01 |
|---|---|
| Airport | Turin Airport (LIMF) |
| Time | Latitude | Longitude | Altitude | Speed | Heading |
|---|---|---|---|---|---|
| 2026-05-04 20:12 | 45.45338 | 9.28040 | 361 ft | 0 kts | 271° |
| 2026-05-04 20:16 | 45.45338 | 9.28001 | 361 ft | 8 kts | 271° |
| 2026-05-04 20:16 | 45.45320 | 9.27934 | 365 ft | 8 kts | 221° |
| 2026-05-04 20:16 | 45.45286 | 9.27906 | 361 ft | 0 kts | 204° |
| 2026-05-04 20:17 | 45.45276 | 9.27900 | 365 ft | 9 kts | 204° |
| 2026-05-04 20:18 | 45.45179 | 9.27872 | 360 ft | 16 kts | 179° |
| 2026-05-04 20:18 | 45.45068 | 9.27883 | 359 ft | 16 kts | 177° |
| 2026-05-04 20:18 | 45.44952 | 9.27900 | 359 ft | 17 kts | 169° |
| 2026-05-04 20:18 | 45.44834 | 9.27940 | 361 ft | 18 kts | 173° |
| 2026-05-04 20:19 | 45.44750 | 9.27950 | 357 ft | 19 kts | 176° |
| 2026-05-04 20:19 | 45.44611 | 9.27966 | 356 ft | 21 kts | 174° |
| 2026-05-04 20:19 | 45.44459 | 9.27981 | 355 ft | 23 kts | 175° |
| 2026-05-04 20:19 | 45.44295 | 9.28001 | 354 ft | 25 kts | 175° |
| 2026-05-04 20:20 | 45.44118 | 9.28018 | 358 ft | 26 kts | 176° |
| 2026-05-04 20:20 | 45.43931 | 9.28038 | 352 ft | 28 kts | 176° |
| 2026-05-04 20:20 | 45.43734 | 9.28059 | 357 ft | 29 kts | 176° |
| 2026-05-04 20:20 | 45.43631 | 9.28070 | 353 ft | 11 kts | 175° |
| 2026-05-04 20:21 | 45.43557 | 9.28078 | 349 ft | 10 kts | 176° |
| 2026-05-04 20:21 | 45.43493 | 9.28076 | 349 ft | 9 kts | 193° |
| 2026-05-04 20:21 | 45.43444 | 9.27963 | 352 ft | 6 kts | 262° |
| 2026-05-04 20:22 | 45.43444 | 9.27959 | 352 ft | 0 kts | 262° |
| 2026-05-04 20:22 | 45.43441 | 9.27923 | 349 ft | 3 kts | 265° |
| 2026-05-04 20:23 | 45.43441 | 9.27911 | 349 ft | 0 kts | 269° |
| 2026-05-04 20:23 | 45.43448 | 9.27866 | 352 ft | 8 kts | 288° |
| 2026-05-04 20:23 | 45.43489 | 9.27823 | 352 ft | 7 kts | 339° |
| 2026-05-04 20:23 | 45.43532 | 9.27812 | 353 ft | 6 kts | 357° |
| 2026-05-04 20:24 | 45.43558 | 9.27811 | 350 ft | 0 kts | 353° |
| 2026-05-04 20:24 | 45.43564 | 9.27810 | 350 ft | 6 kts | 353° |
| 2026-05-04 20:25 | 45.43874 | 9.27773 | 349 ft | 84 kts | 355° |
| 2026-05-04 20:25 | 45.44676 | 9.27687 | 359 ft | 144 kts | 355° |
| 2026-05-04 20:25 | 45.45801 | 9.27555 | 690 ft | 165 kts | 354° |
| 2026-05-04 20:25 | 45.46936 | 9.27444 | 1427 ft | 165 kts | 354° |
| 2026-05-04 20:26 | 45.48088 | 9.27283 | 2154 ft | 166 kts | 351° |
| 2026-05-04 20:26 | 45.49274 | 9.27379 | 2607 ft | 185 kts | 22° |
| 2026-05-04 20:26 | 45.50249 | 9.28716 | 2918 ft | 213 kts | 67° |
| 2026-05-04 20:26 | 45.50343 | 9.30873 | 3465 ft | 227 kts | 103° |
| 2026-05-04 20:27 | 45.49943 | 9.33033 | 4265 ft | 229 kts | 107° |
| 2026-05-04 20:27 | 45.49461 | 9.35237 | 5138 ft | 230 kts | 108° |
| 2026-05-04 20:27 | 45.48968 | 9.37380 | 6005 ft | 229 kts | 113° |
| 2026-05-04 20:27 | 45.48141 | 9.39298 | 6930 ft | 228 kts | 135° |
| 2026-05-04 20:28 | 45.46839 | 9.40680 | 7444 ft | 245 kts | 157° |
| 2026-05-04 20:28 | 45.45177 | 9.41576 | 7864 ft | 265 kts | 161° |
| 2026-05-04 20:28 | 45.43415 | 9.42498 | 8621 ft | 272 kts | 161° |
| 2026-05-04 20:28 | 45.41633 | 9.43441 | 9524 ft | 275 kts | 161° |
| 2026-05-04 20:29 | 45.39835 | 9.44398 | 10391 ft | 277 kts | 161° |
| 2026-05-04 20:29 | 45.38019 | 9.45367 | 11178 ft | 281 kts | 161° |
| 2026-05-04 20:29 | 45.36174 | 9.46357 | 11951 ft | 285 kts | 161° |
| 2026-05-04 20:29 | 45.34299 | 9.47365 | 12708 ft | 290 kts | 161° |
| 2026-05-04 20:30 | 45.32391 | 9.48392 | 13457 ft | 296 kts | 161° |
| 2026-05-04 20:30 | 45.30445 | 9.49438 | 14165 ft | 301 kts | 161° |
| 2026-05-04 20:30 | 45.28475 | 9.50500 | 14838 ft | 305 kts | 161° |
| 2026-05-04 20:30 | 45.26480 | 9.51571 | 15526 ft | 308 kts | 162° |
| 2026-05-04 20:31 | 45.24487 | 9.52636 | 16190 ft | 312 kts | 162° |
| 2026-05-04 20:31 | 45.22443 | 9.53723 | 16877 ft | 315 kts | 162° |
| 2026-05-04 20:31 | 45.20368 | 9.54830 | 17392 ft | 326 kts | 162° |
| 2026-05-04 20:31 | 45.18179 | 9.56022 | 17520 ft | 347 kts | 161° |
| 2026-05-04 20:32 | 45.15885 | 9.57292 | 17827 ft | 360 kts | 161° |
| 2026-05-04 20:32 | 45.13536 | 9.58604 | 18401 ft | 365 kts | 161° |
| 2026-05-04 20:32 | 45.11158 | 9.59932 | 18941 ft | 369 kts | 161° |
| 2026-05-04 20:32 | 45.08763 | 9.61267 | 19497 ft | 371 kts | 161° |
| 2026-05-04 20:33 | 45.06371 | 9.62685 | 20028 ft | 375 kts | 159° |
| 2026-05-04 20:33 | 45.03988 | 9.64218 | 20564 ft | 378 kts | 158° |
| 2026-05-04 20:33 | 45.01604 | 9.65810 | 21099 ft | 380 kts | 157° |
| 2026-05-04 20:33 | 44.99216 | 9.67424 | 21629 ft | 382 kts | 157° |
| 2026-05-04 20:34 | 44.96807 | 9.69045 | 22154 ft | 384 kts | 157° |
| 2026-05-04 20:34 | 44.94374 | 9.70664 | 22647 ft | 387 kts | 158° |
| 2026-05-04 20:34 | 44.91925 | 9.72276 | 23158 ft | 389 kts | 158° |
| 2026-05-04 20:34 | 44.89461 | 9.73883 | 23653 ft | 391 kts | 158° |
| 2026-05-04 20:35 | 44.86979 | 9.75493 | 23987 ft | 394 kts | 158° |
| 2026-05-04 20:35 | 44.84492 | 9.77103 | 24072 ft | 390 kts | 158° |
| 2026-05-04 20:35 | 44.82077 | 9.78673 | 24086 ft | 377 kts | 158° |
| 2026-05-04 20:35 | 44.79707 | 9.80212 | 24095 ft | 373 kts | 158° |
| 2026-05-04 20:36 | 44.77383 | 9.81719 | 24094 ft | 372 kts | 158° |
| 2026-05-04 20:36 | 44.75000 | 9.83259 | 24093 ft | 373 kts | 159° |
| 2026-05-04 20:36 | 44.72563 | 9.84234 | 24097 ft | 367 kts | 177° |
| 2026-05-04 20:36 | 44.70036 | 9.83985 | 24099 ft | 363 kts | 197° |
| 2026-05-04 20:37 | 44.67760 | 9.82541 | 24102 ft | 360 kts | 216° |
| 2026-05-04 20:37 | 44.65982 | 9.80090 | 24101 ft | 360 kts | 235° |
| 2026-05-04 20:37 | 44.64806 | 9.76972 | 24103 ft | 362 kts | 244° |
| 2026-05-04 20:37 | 44.63770 | 9.73754 | 24108 ft | 363 kts | 244° |
| 2026-05-04 20:38 | 44.62735 | 9.70527 | 24112 ft | 363 kts | 244° |
| 2026-05-04 20:38 | 44.61700 | 9.67292 | 24108 ft | 363 kts | 244° |
| 2026-05-04 20:38 | 44.60667 | 9.64063 | 24108 ft | 363 kts | 244° |
| 2026-05-04 20:38 | 44.59629 | 9.60829 | 24108 ft | 363 kts | 244° |
| 2026-05-04 20:39 | 44.58588 | 9.57609 | 24099 ft | 363 kts | 244° |
| 2026-05-04 20:39 | 44.57542 | 9.54383 | 24101 ft | 363 kts | 244° |
| 2026-05-04 20:39 | 44.56497 | 9.51164 | 24101 ft | 363 kts | 244° |
| 2026-05-04 20:39 | 44.55447 | 9.47934 | 24103 ft | 363 kts | 244° |
| 2026-05-04 20:40 | 44.54395 | 9.44711 | 24118 ft | 363 kts | 244° |
| 2026-05-04 20:40 | 44.53344 | 9.41491 | 24115 ft | 363 kts | 244° |
| 2026-05-04 20:40 | 44.52306 | 9.38317 | 24117 ft | 363 kts | 244° |
| 2026-05-04 20:40 | 44.51253 | 9.35100 | 24116 ft | 363 kts | 244° |
| 2026-05-04 20:41 | 44.50202 | 9.31886 | 24114 ft | 363 kts | 244° |
| 2026-05-04 20:41 | 44.49151 | 9.28672 | 24111 ft | 363 kts | 244° |
| 2026-05-04 20:41 | 44.48104 | 9.25466 | 24111 ft | 362 kts | 244° |
| 2026-05-04 20:41 | 44.47053 | 9.22256 | 24107 ft | 362 kts | 244° |
| 2026-05-04 20:42 | 44.46000 | 9.19056 | 24109 ft | 362 kts | 244° |
| 2026-05-04 20:42 | 44.44948 | 9.15856 | 24107 ft | 362 kts | 244° |
| 2026-05-04 20:42 | 44.43916 | 9.12645 | 24105 ft | 362 kts | 248° |
| 2026-05-04 20:42 | 44.43255 | 9.09234 | 24104 ft | 364 kts | 259° |
| 2026-05-04 20:43 | 44.43127 | 9.05690 | 24110 ft | 367 kts | 271° |
| 2026-05-04 20:43 | 44.43527 | 9.02144 | 24105 ft | 371 kts | 281° |
| 2026-05-04 20:43 | 44.44152 | 8.98645 | 24103 ft | 371 kts | 281° |
| 2026-05-04 20:43 | 44.44777 | 8.95138 | 24074 ft | 370 kts | 281° |
| 2026-05-04 20:44 | 44.45390 | 8.91681 | 23849 ft | 362 kts | 281° |
| 2026-05-04 20:44 | 44.45984 | 8.88300 | 23560 ft | 354 kts | 281° |
| 2026-05-04 20:44 | 44.46567 | 8.84972 | 23105 ft | 351 kts | 281° |
| 2026-05-04 20:44 | 44.47146 | 8.81668 | 22662 ft | 348 kts | 281° |
| 2026-05-04 20:45 | 44.47722 | 8.78383 | 22220 ft | 346 kts | 281° |
| 2026-05-04 20:45 | 44.48287 | 8.75159 | 21798 ft | 344 kts | 281° |
| 2026-05-04 20:45 | 44.48853 | 8.71921 | 21379 ft | 342 kts | 281° |
| 2026-05-04 20:45 | 44.49417 | 8.68684 | 20953 ft | 340 kts | 280° |
| 2026-05-04 20:46 | 44.49974 | 8.65480 | 20537 ft | 338 kts | 280° |
| 2026-05-04 20:46 | 44.50528 | 8.62285 | 20117 ft | 336 kts | 280° |
| 2026-05-04 20:46 | 44.51078 | 8.59112 | 19704 ft | 335 kts | 280° |
| 2026-05-04 20:46 | 44.51625 | 8.55947 | 19294 ft | 334 kts | 280° |
| 2026-05-04 20:47 | 44.52169 | 8.52794 | 18887 ft | 332 kts | 280° |
| 2026-05-04 20:47 | 44.52711 | 8.49655 | 18479 ft | 331 kts | 280° |
| 2026-05-04 20:47 | 44.53251 | 8.46519 | 18034 ft | 330 kts | 280° |
| 2026-05-04 20:47 | 44.53786 | 8.43401 | 17634 ft | 328 kts | 280° |
| 2026-05-04 20:48 | 44.54319 | 8.40306 | 17236 ft | 325 kts | 280° |
| 2026-05-04 20:48 | 44.54846 | 8.37236 | 16850 ft | 323 kts | 280° |
| 2026-05-04 20:48 | 44.55369 | 8.34178 | 16488 ft | 321 kts | 280° |
| 2026-05-04 20:48 | 44.55890 | 8.31133 | 16097 ft | 321 kts | 280° |
| 2026-05-04 20:49 | 44.56405 | 8.28102 | 15718 ft | 320 kts | 280° |
| 2026-05-04 20:49 | 44.56919 | 8.25075 | 15342 ft | 318 kts | 280° |
| 2026-05-04 20:49 | 44.57497 | 8.22083 | 14985 ft | 319 kts | 288° |
| 2026-05-04 20:49 | 44.58600 | 8.19364 | 14454 ft | 329 kts | 308° |
| 2026-05-04 20:50 | 44.60205 | 8.17023 | 13934 ft | 335 kts | 311° |
| 2026-05-04 20:50 | 44.61844 | 8.14696 | 13482 ft | 334 kts | 312° |
| 2026-05-04 20:50 | 44.63474 | 8.12384 | 13082 ft | 332 kts | 312° |
| 2026-05-04 20:50 | 44.65094 | 8.10086 | 12683 ft | 330 kts | 312° |
| 2026-05-04 20:51 | 44.66705 | 8.07797 | 12274 ft | 328 kts | 312° |
| 2026-05-04 20:51 | 44.68309 | 8.05518 | 11876 ft | 327 kts | 312° |
| 2026-05-04 20:51 | 44.69881 | 8.03279 | 11475 ft | 326 kts | 312° |
| 2026-05-04 20:51 | 44.71474 | 8.01001 | 10982 ft | 328 kts | 312° |
| 2026-05-04 20:52 | 44.73068 | 7.98712 | 10547 ft | 327 kts | 312° |
| 2026-05-04 20:52 | 44.74660 | 7.96426 | 10248 ft | 323 kts | 312° |
| 2026-05-04 20:52 | 44.76210 | 7.94207 | 10123 ft | 312 kts | 312° |
| 2026-05-04 20:52 | 44.77705 | 7.92067 | 9652 ft | 304 kts | 312° |
| 2026-05-04 20:53 | 44.79182 | 7.89949 | 9021 ft | 300 kts | 313° |
| 2026-05-04 20:53 | 44.80631 | 7.87875 | 8457 ft | 294 kts | 313° |
| 2026-05-04 20:53 | 44.82042 | 7.85854 | 8024 ft | 283 kts | 313° |
| 2026-05-04 20:53 | 44.83399 | 7.83909 | 7623 ft | 273 kts | 314° |
| 2026-05-04 20:54 | 44.84707 | 7.82032 | 7220 ft | 264 kts | 314° |
| 2026-05-04 20:54 | 44.85986 | 7.80194 | 6852 ft | 262 kts | 314° |
| 2026-05-04 20:54 | 44.87264 | 7.78355 | 6449 ft | 263 kts | 314° |
| 2026-05-04 20:54 | 44.88530 | 7.76533 | 6031 ft | 263 kts | 314° |
| 2026-05-04 20:55 | 44.89804 | 7.74693 | 5714 ft | 258 kts | 314° |
| 2026-05-04 20:55 | 44.91011 | 7.72954 | 5655 ft | 242 kts | 314° |
| 2026-05-04 20:55 | 44.92176 | 7.71273 | 5569 ft | 238 kts | 314° |
| 2026-05-04 20:55 | 44.93335 | 7.69601 | 5463 ft | 238 kts | 314° |
| 2026-05-04 20:56 | 44.94492 | 7.67930 | 5368 ft | 238 kts | 314° |
| 2026-05-04 20:56 | 44.95644 | 7.66265 | 5262 ft | 236 kts | 314° |
| 2026-05-04 20:56 | 44.96841 | 7.64694 | 5178 ft | 232 kts | 327° |
| 2026-05-04 20:56 | 44.98260 | 7.63798 | 4950 ft | 219 kts | 348° |
| 2026-05-04 20:57 | 44.99740 | 7.63674 | 4674 ft | 210 kts | 2° |
| 2026-05-04 20:57 | 45.01198 | 7.63769 | 4388 ft | 210 kts | 1° |
| 2026-05-04 20:57 | 45.02661 | 7.63861 | 4114 ft | 211 kts | 1° |
| 2026-05-04 20:57 | 45.04130 | 7.63953 | 3848 ft | 212 kts | 1° |
| 2026-05-04 20:58 | 45.05572 | 7.64045 | 3600 ft | 202 kts | 2° |
| 2026-05-04 20:58 | 45.06937 | 7.64131 | 3337 ft | 190 kts | 3° |
| 2026-05-04 20:58 | 45.08189 | 7.64209 | 3090 ft | 174 kts | 3° |
| 2026-05-04 20:58 | 45.09365 | 7.64284 | 2862 ft | 162 kts | 3° |
| 2026-05-04 20:59 | 45.10478 | 7.64354 | 2649 ft | 158 kts | 3° |
| 2026-05-04 20:59 | 45.11564 | 7.64423 | 2457 ft | 152 kts | 3° |
| 2026-05-04 20:59 | 45.12585 | 7.64488 | 2243 ft | 146 kts | 3° |
| 2026-05-04 20:59 | 45.13586 | 7.64551 | 2046 ft | 143 kts | 2° |
| 2026-05-04 21:00 | 45.14571 | 7.64614 | 1851 ft | 140 kts | 1° |
| 2026-05-04 21:00 | 45.15534 | 7.64675 | 1654 ft | 138 kts | 1° |
| 2026-05-04 21:00 | 45.16502 | 7.64736 | 1466 ft | 138 kts | 359° |
| 2026-05-04 21:00 | 45.17469 | 7.64797 | 1281 ft | 139 kts | 360° |
| 2026-05-04 21:01 | 45.18421 | 7.64858 | 1095 ft | 135 kts | 358° |
| 2026-05-04 21:01 | 45.19345 | 7.64918 | 966 ft | 123 kts | 1° |
| 2026-05-04 21:01 | 45.19935 | 7.64952 | 970 ft | 42 kts | 2° |
| 2026-05-04 21:01 | 45.20150 | 7.64945 | 981 ft | 21 kts | 333° |
| 2026-05-04 21:02 | 45.20197 | 7.64837 | 981 ft | 0 kts | 281° |
| 2026-05-04 21:02 | 45.20198 | 7.64830 | 986 ft | 1 kts | 281° |
| 2026-05-04 21:02 | 45.20199 | 7.64813 | 985 ft | 2 kts | 272° |
| 2026-05-04 21:02 | 45.20194 | 7.64779 | 987 ft | 5 kts | 250° |
| 2026-05-04 21:03 | 45.20167 | 7.64734 | 981 ft | 7 kts | 218° |
| 2026-05-04 21:03 | 45.20125 | 7.64706 | 975 ft | 4 kts | 194° |
| 2026-05-04 21:03 | 45.20099 | 7.64700 | 980 ft | 4 kts | 188° |
| 2026-05-04 21:03 | 45.20071 | 7.64696 | 983 ft | 7 kts | 184° |
| 2026-05-04 21:04 | 45.19987 | 7.64691 | 976 ft | 14 kts | 182° |
| 2026-05-04 21:04 | 45.19884 | 7.64686 | 967 ft | 16 kts | 182° |
| 2026-05-04 21:04 | 45.19784 | 7.64689 | 966 ft | 10 kts | 174° |
| 2026-05-04 21:04 | 45.19725 | 7.64698 | 966 ft | 7 kts | 178° |
| 2026-05-04 21:05 | 45.19678 | 7.64695 | 967 ft | 8 kts | 183° |
| 2026-05-04 21:05 | 45.19601 | 7.64690 | 967 ft | 12 kts | 183° |
| 2026-05-04 21:05 | 45.19518 | 7.64684 | 962 ft | 12 kts | 183° |
| 2026-05-04 21:05 | 45.19440 | 7.64678 | 964 ft | 10 kts | 183° |
| 2026-05-04 21:06 | 45.19379 | 7.64674 | 965 ft | 8 kts | 182° |
| 2026-05-04 21:06 | 45.19329 | 7.64672 | 966 ft | 7 kts | 181° |
| 2026-05-04 21:06 | 45.19279 | 7.64671 | 965 ft | 8 kts | 181° |
| 2026-05-04 21:06 | 45.19237 | 7.64627 | 961 ft | 9 kts | 252° |
| 2026-05-04 21:07 | 45.19229 | 7.64578 | 958 ft | 0 kts | 257° |